sensor_id;sensor_type;location;lat;lon;timestamp;P1;durP1;ratioP1;P2;durP2;ratioP2
17259;SDS011;8746;49.230;9.220;2022-12-07T00:01:05;6.93;;;5.93;;
17259;SDS011;8746;49.230;9.220;2022-12-07T00:03:42;9.10;;;6.00;;
17259;SDS011;8746;49.230;9.220;2022-12-07T00:06:09;6.13;;;5.33;;
17259;SDS011;8746;49.230;9.220;2022-12-07T00:08:36;8.77;;;6.03;;
17259;SDS011;8746;49.230;9.220;2022-12-07T00:11:08;5.37;;;4.77;;
17259;SDS011;8746;49.230;9.220;2022-12-07T00:13:35;7.17;;;5.50;;
17259;SDS011;8746;49.230;9.220;2022-12-07T00:16:11;6.17;;;5.57;;
17259;SDS011;8746;49.230;9.220;2022-12-07T00:18:39;7.37;;;5.47;;
17259;SDS011;8746;49.230;9.220;2022-12-07T00:21:06;6.60;;;5.63;;
17259;SDS011;8746;49.230;9.220;2022-12-07T00:23:34;8.73;;;6.40;;
17259;SDS011;8746;49.230;9.220;2022-12-07T00:26:07;6.80;;;5.90;;
17259;SDS011;8746;49.230;9.220;2022-12-07T00:28:37;6.97;;;6.20;;
17259;SDS011;8746;49.230;9.220;2022-12-07T00:31:07;8.97;;;7.00;;
17259;SDS011;8746;49.230;9.220;2022-12-07T00:33:33;8.63;;;6.33;;
17259;SDS011;8746;49.230;9.220;2022-12-07T00:36:00;7.77;;;6.10;;
17259;SDS011;8746;49.230;9.220;2022-12-07T00:38:27;7.33;;;6.10;;
17259;SDS011;8746;49.230;9.220;2022-12-07T00:40:58;7.33;;;6.17;;
17259;SDS011;8746;49.230;9.220;2022-12-07T00:43:25;7.27;;;6.03;;
17259;SDS011;8746;49.230;9.220;2022-12-07T00:45:51;8.37;;;6.53;;
17259;SDS011;8746;49.230;9.220;2022-12-07T00:48:17;8.17;;;6.97;;
17259;SDS011;8746;49.230;9.220;2022-12-07T00:50:42;9.57;;;6.90;;
17259;SDS011;8746;49.230;9.220;2022-12-07T00:53:08;7.57;;;6.47;;
17259;SDS011;8746;49.230;9.220;2022-12-07T00:55:34;7.23;;;6.43;;
17259;SDS011;8746;49.230;9.220;2022-12-07T00:57:59;9.67;;;6.37;;
17259;SDS011;8746;49.230;9.220;2022-12-07T01:00:25;8.10;;;6.30;;
17259;SDS011;8746;49.230;9.220;2022-12-07T01:02:51;7.03;;;6.00;;
17259;SDS011;8746;49.230;9.220;2022-12-07T01:05:17;7.40;;;5.90;;
17259;SDS011;8746;49.230;9.220;2022-12-07T01:07:42;9.03;;;6.27;;
17259;SDS011;8746;49.230;9.220;2022-12-07T01:10:07;8.00;;;5.80;;
17259;SDS011;8746;49.230;9.220;2022-12-07T01:12:33;9.00;;;6.17;;
17259;SDS011;8746;49.230;9.220;2022-12-07T01:14:58;7.80;;;6.43;;
17259;SDS011;8746;49.230;9.220;2022-12-07T01:17:24;8.23;;;6.43;;
17259;SDS011;8746;49.230;9.220;2022-12-07T01:19:49;8.43;;;6.77;;
17259;SDS011;8746;49.230;9.220;2022-12-07T01:22:15;10.10;;;6.47;;
17259;SDS011;8746;49.230;9.220;2022-12-07T01:24:40;7.20;;;6.23;;
17259;SDS011;8746;49.230;9.220;2022-12-07T01:27:05;9.70;;;6.90;;
17259;SDS011;8746;49.230;9.220;2022-12-07T01:29:31;9.67;;;6.40;;
17259;SDS011;8746;49.230;9.220;2022-12-07T01:31:56;9.13;;;6.90;;
17259;SDS011;8746;49.230;9.220;2022-12-07T01:34:21;8.87;;;6.30;;
17259;SDS011;8746;49.230;9.220;2022-12-07T01:36:47;8.57;;;7.10;;
17259;SDS011;8746;49.230;9.220;2022-12-07T01:39:12;7.20;;;5.73;;
17259;SDS011;8746;49.230;9.220;2022-12-07T01:41:39;8.33;;;6.07;;
17259;SDS011;8746;49.230;9.220;2022-12-07T01:46:49;8.43;;;6.47;;
17259;SDS011;8746;49.230;9.220;2022-12-07T01:49:17;10.60;;;6.10;;
17259;SDS011;8746;49.230;9.220;2022-12-07T01:51:46;9.50;;;6.30;;
17259;SDS011;8746;49.230;9.220;2022-12-07T01:54:14;8.13;;;6.37;;
17259;SDS011;8746;49.230;9.220;2022-12-07T01:56:42;8.33;;;6.20;;
17259;SDS011;8746;49.230;9.220;2022-12-07T01:59:17;8.50;;;6.97;;
17259;SDS011;8746;49.230;9.220;2022-12-07T02:01:45;8.27;;;6.63;;
17259;SDS011;8746;49.230;9.220;2022-12-07T02:04:11;9.33;;;6.33;;
17259;SDS011;8746;49.230;9.220;2022-12-07T02:06:37;6.97;;;6.13;;
17259;SDS011;8746;49.230;9.220;2022-12-07T02:09:03;8.73;;;6.30;;
17259;SDS011;8746;49.230;9.220;2022-12-07T02:11:29;7.53;;;5.93;;
17259;SDS011;8746;49.230;9.220;2022-12-07T02:13:55;8.40;;;6.40;;
17259;SDS011;8746;49.230;9.220;2022-12-07T02:22:28;10.00;;;7.10;;
17259;SDS011;8746;49.230;9.220;2022-12-07T02:28:06;7.63;;;6.23;;
17259;SDS011;8746;49.230;9.220;2022-12-07T02:30:42;7.20;;;6.10;;
17259;SDS011;8746;49.230;9.220;2022-12-07T02:33:19;9.87;;;6.77;;
17259;SDS011;8746;49.230;9.220;2022-12-07T02:39:07;9.57;;;6.07;;
17259;SDS011;8746;49.230;9.220;2022-12-07T02:41:47;8.47;;;6.63;;
17259;SDS011;8746;49.230;9.220;2022-12-07T02:44:18;8.20;;;6.80;;
17259;SDS011;8746;49.230;9.220;2022-12-07T02:46:49;8.67;;;6.37;;
17259;SDS011;8746;49.230;9.220;2022-12-07T02:49:18;8.17;;;6.90;;
17259;SDS011;8746;49.230;9.220;2022-12-07T02:51:47;8.40;;;6.33;;
17259;SDS011;8746;49.230;9.220;2022-12-07T02:54:15;8.67;;;6.73;;
17259;SDS011;8746;49.230;9.220;2022-12-07T02:59:25;12.30;;;7.93;;
17259;SDS011;8746;49.230;9.220;2022-12-07T03:02:04;10.97;;;8.07;;
17259;SDS011;8746;49.230;9.220;2022-12-07T03:04:51;9.90;;;7.90;;
17259;SDS011;8746;49.230;9.220;2022-12-07T03:12:42;10.23;;;7.73;;
17259;SDS011;8746;49.230;9.220;2022-12-07T03:15:17;11.77;;;8.00;;
17259;SDS011;8746;49.230;9.220;2022-12-07T03:17:49;12.50;;;8.53;;
17259;SDS011;8746;49.230;9.220;2022-12-07T03:20:16;11.83;;;8.40;;
17259;SDS011;8746;49.230;9.220;2022-12-07T03:22:46;12.03;;;8.70;;
17259;SDS011;8746;49.230;9.220;2022-12-07T03:25:13;13.10;;;8.60;;
17259;SDS011;8746;49.230;9.220;2022-12-07T03:27:45;11.73;;;8.57;;
17259;SDS011;8746;49.230;9.220;2022-12-07T03:30:21;10.87;;;8.53;;
17259;SDS011;8746;49.230;9.220;2022-12-07T03:32:50;9.50;;;7.60;;
17259;SDS011;8746;49.230;9.220;2022-12-07T03:35:19;11.47;;;8.23;;
17259;SDS011;8746;49.230;9.220;2022-12-07T03:37:57;9.70;;;8.00;;
17259;SDS011;8746;49.230;9.220;2022-12-07T03:40:34;11.77;;;8.20;;
17259;SDS011;8746;49.230;9.220;2022-12-07T03:43:04;11.57;;;8.50;;
17259;SDS011;8746;49.230;9.220;2022-12-07T03:45:40;11.60;;;7.97;;
17259;SDS011;8746;49.230;9.220;2022-12-07T03:48:09;11.53;;;8.23;;
17259;SDS011;8746;49.230;9.220;2022-12-07T03:50:48;11.30;;;8.23;;
17259;SDS011;8746;49.230;9.220;2022-12-07T03:53:20;12.77;;;8.83;;
17259;SDS011;8746;49.230;9.220;2022-12-07T03:55:54;11.13;;;8.43;;
17259;SDS011;8746;49.230;9.220;2022-12-07T03:58:22;10.53;;;8.17;;
17259;SDS011;8746;49.230;9.220;2022-12-07T04:00:49;11.93;;;8.00;;
17259;SDS011;8746;49.230;9.220;2022-12-07T04:03:15;11.07;;;8.47;;
17259;SDS011;8746;49.230;9.220;2022-12-07T04:05:41;12.77;;;8.87;;
17259;SDS011;8746;49.230;9.220;2022-12-07T04:08:07;10.77;;;8.53;;
17259;SDS011;8746;49.230;9.220;2022-12-07T04:10:33;10.33;;;8.63;;
17259;SDS011;8746;49.230;9.220;2022-12-07T04:12:58;10.53;;;8.63;;
17259;SDS011;8746;49.230;9.220;2022-12-07T04:15:24;12.00;;;8.60;;
17259;SDS011;8746;49.230;9.220;2022-12-07T04:17:49;11.77;;;8.60;;
17259;SDS011;8746;49.230;9.220;2022-12-07T04:20:15;13.57;;;8.87;;
17259;SDS011;8746;49.230;9.220;2022-12-07T04:22:40;11.37;;;9.17;;
17259;SDS011;8746;49.230;9.220;2022-12-07T04:25:06;10.70;;;8.93;;
17259;SDS011;8746;49.230;9.220;2022-12-07T04:27:32;10.40;;;8.50;;
17259;SDS011;8746;49.230;9.220;2022-12-07T04:29:57;11.97;;;8.77;;
17259;SDS011;8746;49.230;9.220;2022-12-07T04:32:23;10.17;;;8.33;;
17259;SDS011;8746;49.230;9.220;2022-12-07T04:34:49;12.13;;;9.37;;
17259;SDS011;8746;49.230;9.220;2022-12-07T04:37:14;10.27;;;8.90;;
17259;SDS011;8746;49.230;9.220;2022-12-07T04:39:40;10.70;;;8.43;;
17259;SDS011;8746;49.230;9.220;2022-12-07T04:42:05;10.37;;;8.33;;
17259;SDS011;8746;49.230;9.220;2022-12-07T04:44:31;9.93;;;7.87;;
17259;SDS011;8746;49.230;9.220;2022-12-07T04:46:56;10.33;;;9.00;;
17259;SDS011;8746;49.230;9.220;2022-12-07T04:49:22;11.33;;;8.90;;
17259;SDS011;8746;49.230;9.220;2022-12-07T04:51:48;12.27;;;9.27;;
17259;SDS011;8746;49.230;9.220;2022-12-07T04:54:14;11.40;;;9.13;;
17259;SDS011;8746;49.230;9.220;2022-12-07T04:56:40;11.83;;;9.37;;
17259;SDS011;8746;49.230;9.220;2022-12-07T04:59:06;11.67;;;9.13;;
17259;SDS011;8746;49.230;9.220;2022-12-07T05:01:32;12.93;;;9.47;;
17259;SDS011;8746;49.230;9.220;2022-12-07T05:03:58;12.33;;;9.77;;
17259;SDS011;8746;49.230;9.220;2022-12-07T05:06:24;11.90;;;9.20;;
17259;SDS011;8746;49.230;9.220;2022-12-07T05:08:49;11.23;;;9.23;;
17259;SDS011;8746;49.230;9.220;2022-12-07T05:11:15;11.20;;;8.97;;
17259;SDS011;8746;49.230;9.220;2022-12-07T05:13:58;11.97;;;9.70;;
17259;SDS011;8746;49.230;9.220;2022-12-07T05:16:24;11.80;;;9.10;;
17259;SDS011;8746;49.230;9.220;2022-12-07T05:18:49;12.63;;;8.83;;
17259;SDS011;8746;49.230;9.220;2022-12-07T05:21:15;11.20;;;9.17;;
17259;SDS011;8746;49.230;9.220;2022-12-07T05:23:40;12.73;;;9.93;;
17259;SDS011;8746;49.230;9.220;2022-12-07T05:26:05;15.83;;;9.93;;
17259;SDS011;8746;49.230;9.220;2022-12-07T05:28:31;11.40;;;9.47;;
17259;SDS011;8746;49.230;9.220;2022-12-07T05:30:56;13.87;;;9.60;;
17259;SDS011;8746;49.230;9.220;2022-12-07T05:33:21;13.00;;;9.40;;
17259;SDS011;8746;49.230;9.220;2022-12-07T05:35:47;13.63;;;9.77;;
17259;SDS011;8746;49.230;9.220;2022-12-07T05:38:12;13.77;;;9.73;;
17259;SDS011;8746;49.230;9.220;2022-12-07T05:40:37;15.40;;;9.60;;
17259;SDS011;8746;49.230;9.220;2022-12-07T05:43:03;13.03;;;9.77;;
17259;SDS011;8746;49.230;9.220;2022-12-07T05:45:28;11.57;;;9.20;;
17259;SDS011;8746;49.230;9.220;2022-12-07T05:47:54;11.33;;;8.90;;
17259;SDS011;8746;49.230;9.220;2022-12-07T05:50:19;13.53;;;9.67;;
17259;SDS011;8746;49.230;9.220;2022-12-07T05:52:44;10.83;;;8.70;;
17259;SDS011;8746;49.230;9.220;2022-12-07T05:55:10;14.03;;;10.07;;
17259;SDS011;8746;49.230;9.220;2022-12-07T05:57:35;14.00;;;9.83;;
17259;SDS011;8746;49.230;9.220;2022-12-07T06:00:01;11.87;;;9.67;;
17259;SDS011;8746;49.230;9.220;2022-12-07T06:02:27;12.73;;;9.80;;
17259;SDS011;8746;49.230;9.220;2022-12-07T06:04:52;12.77;;;9.63;;
17259;SDS011;8746;49.230;9.220;2022-12-07T06:07:17;12.17;;;9.27;;
17259;SDS011;8746;49.230;9.220;2022-12-07T06:09:43;12.30;;;9.10;;
17259;SDS011;8746;49.230;9.220;2022-12-07T06:12:09;10.77;;;8.93;;
17259;SDS011;8746;49.230;9.220;2022-12-07T06:14:54;11.23;;;8.60;;
17259;SDS011;8746;49.230;9.220;2022-12-07T06:17:20;14.10;;;10.00;;
17259;SDS011;8746;49.230;9.220;2022-12-07T06:19:45;10.77;;;9.00;;
17259;SDS011;8746;49.230;9.220;2022-12-07T06:22:11;11.30;;;8.87;;
17259;SDS011;8746;49.230;9.220;2022-12-07T06:24:37;11.60;;;8.60;;
17259;SDS011;8746;49.230;9.220;2022-12-07T06:27:03;12.07;;;9.33;;
17259;SDS011;8746;49.230;9.220;2022-12-07T06:29:29;11.17;;;8.53;;
17259;SDS011;8746;49.230;9.220;2022-12-07T06:31:54;11.43;;;8.63;;
17259;SDS011;8746;49.230;9.220;2022-12-07T06:34:20;11.33;;;8.90;;
17259;SDS011;8746;49.230;9.220;2022-12-07T06:36:47;10.60;;;8.87;;
17259;SDS011;8746;49.230;9.220;2022-12-07T06:39:16;12.53;;;9.37;;
17259;SDS011;8746;49.230;9.220;2022-12-07T06:41:43;12.63;;;9.37;;
17259;SDS011;8746;49.230;9.220;2022-12-07T06:44:08;12.37;;;9.33;;
17259;SDS011;8746;49.230;9.220;2022-12-07T06:46:34;14.47;;;9.70;;
17259;SDS011;8746;49.230;9.220;2022-12-07T06:49:03;13.20;;;9.87;;
17259;SDS011;8746;49.230;9.220;2022-12-07T06:51:29;13.57;;;9.70;;
17259;SDS011;8746;49.230;9.220;2022-12-07T06:53:55;16.33;;;10.70;;
17259;SDS011;8746;49.230;9.220;2022-12-07T06:56:21;15.43;;;10.67;;
17259;SDS011;8746;49.230;9.220;2022-12-07T06:58:47;13.47;;;9.77;;
17259;SDS011;8746;49.230;9.220;2022-12-07T07:01:14;12.17;;;9.50;;
17259;SDS011;8746;49.230;9.220;2022-12-07T07:03:41;11.27;;;9.80;;
17259;SDS011;8746;49.230;9.220;2022-12-07T07:06:07;13.70;;;9.97;;
17259;SDS011;8746;49.230;9.220;2022-12-07T07:08:33;10.70;;;8.63;;
17259;SDS011;8746;49.230;9.220;2022-12-07T07:10:59;12.77;;;9.60;;
17259;SDS011;8746;49.230;9.220;2022-12-07T07:13:25;12.23;;;9.40;;
17259;SDS011;8746;49.230;9.220;2022-12-07T07:15:50;13.90;;;9.07;;
17259;SDS011;8746;49.230;9.220;2022-12-07T07:18:16;11.80;;;8.40;;
17259;SDS011;8746;49.230;9.220;2022-12-07T07:20:41;14.80;;;9.47;;
17259;SDS011;8746;49.230;9.220;2022-12-07T07:23:07;15.30;;;10.47;;
17259;SDS011;8746;49.230;9.220;2022-12-07T07:25:32;11.40;;;9.10;;
17259;SDS011;8746;49.230;9.220;2022-12-07T07:27:58;13.93;;;9.07;;
17259;SDS011;8746;49.230;9.220;2022-12-07T07:30:24;12.37;;;9.23;;
17259;SDS011;8746;49.230;9.220;2022-12-07T07:32:50;11.83;;;8.23;;
17259;SDS011;8746;49.230;9.220;2022-12-07T07:35:16;11.37;;;8.53;;
17259;SDS011;8746;49.230;9.220;2022-12-07T07:37:41;12.40;;;8.93;;
17259;SDS011;8746;49.230;9.220;2022-12-07T07:40:07;11.80;;;9.10;;
17259;SDS011;8746;49.230;9.220;2022-12-07T07:42:33;11.10;;;8.93;;
17259;SDS011;8746;49.230;9.220;2022-12-07T07:44:59;11.40;;;8.60;;
17259;SDS011;8746;49.230;9.220;2022-12-07T07:47:24;9.93;;;8.13;;
17259;SDS011;8746;49.230;9.220;2022-12-07T07:49:49;11.03;;;9.60;;
17259;SDS011;8746;49.230;9.220;2022-12-07T07:52:15;11.17;;;8.97;;
17259;SDS011;8746;49.230;9.220;2022-12-07T07:54:40;13.10;;;10.60;;
17259;SDS011;8746;49.230;9.220;2022-12-07T07:57:05;13.27;;;9.50;;
17259;SDS011;8746;49.230;9.220;2022-12-07T07:59:30;11.67;;;8.63;;
17259;SDS011;8746;49.230;9.220;2022-12-07T08:01:56;12.67;;;8.80;;
17259;SDS011;8746;49.230;9.220;2022-12-07T08:04:21;13.37;;;9.20;;
17259;SDS011;8746;49.230;9.220;2022-12-07T08:06:46;9.93;;;8.30;;
17259;SDS011;8746;49.230;9.220;2022-12-07T08:09:12;13.53;;;9.43;;
17259;SDS011;8746;49.230;9.220;2022-12-07T08:11:37;12.00;;;8.77;;
17259;SDS011;8746;49.230;9.220;2022-12-07T08:14:03;12.63;;;8.13;;
17259;SDS011;8746;49.230;9.220;2022-12-07T08:16:28;12.33;;;8.70;;
17259;SDS011;8746;49.230;9.220;2022-12-07T08:18:54;10.93;;;8.50;;
17259;SDS011;8746;49.230;9.220;2022-12-07T08:21:19;12.00;;;9.80;;
17259;SDS011;8746;49.230;9.220;2022-12-07T08:23:45;12.30;;;9.80;;
17259;SDS011;8746;49.230;9.220;2022-12-07T08:26:12;14.13;;;10.30;;
17259;SDS011;8746;49.230;9.220;2022-12-07T08:28:39;11.50;;;9.27;;
17259;SDS011;8746;49.230;9.220;2022-12-07T08:31:10;15.13;;;9.50;;
17259;SDS011;8746;49.230;9.220;2022-12-07T08:33:37;14.07;;;9.87;;
17259;SDS011;8746;49.230;9.220;2022-12-07T08:36:04;13.27;;;9.30;;
17259;SDS011;8746;49.230;9.220;2022-12-07T08:38:31;14.57;;;10.10;;
17259;SDS011;8746;49.230;9.220;2022-12-07T08:40:59;12.23;;;9.60;;
17259;SDS011;8746;49.230;9.220;2022-12-07T08:43:25;12.30;;;9.23;;
17259;SDS011;8746;49.230;9.220;2022-12-07T08:46:03;15.13;;;10.20;;
17259;SDS011;8746;49.230;9.220;2022-12-07T08:48:44;12.13;;;9.47;;
17259;SDS011;8746;49.230;9.220;2022-12-07T08:51:14;13.53;;;9.50;;
17259;SDS011;8746;49.230;9.220;2022-12-07T08:53:40;13.17;;;9.77;;
17259;SDS011;8746;49.230;9.220;2022-12-07T08:56:06;11.30;;;9.37;;
17259;SDS011;8746;49.230;9.220;2022-12-07T08:58:32;13.67;;;9.80;;
17259;SDS011;8746;49.230;9.220;2022-12-07T09:00:59;12.30;;;9.70;;
17259;SDS011;8746;49.230;9.220;2022-12-07T09:03:24;12.97;;;8.60;;
17259;SDS011;8746;49.230;9.220;2022-12-07T09:05:50;12.03;;;9.20;;
17259;SDS011;8746;49.230;9.220;2022-12-07T09:08:15;12.70;;;9.10;;
17259;SDS011;8746;49.230;9.220;2022-12-07T09:10:41;12.10;;;9.03;;
17259;SDS011;8746;49.230;9.220;2022-12-07T09:13:06;13.20;;;9.50;;
17259;SDS011;8746;49.230;9.220;2022-12-07T09:15:32;13.17;;;9.17;;
17259;SDS011;8746;49.230;9.220;2022-12-07T09:17:57;12.90;;;8.70;;
17259;SDS011;8746;49.230;9.220;2022-12-07T09:20:23;10.80;;;8.57;;
17259;SDS011;8746;49.230;9.220;2022-12-07T09:22:49;12.23;;;9.50;;
17259;SDS011;8746;49.230;9.220;2022-12-07T09:25:14;14.60;;;10.10;;
17259;SDS011;8746;49.230;9.220;2022-12-07T09:27:40;11.37;;;9.03;;
17259;SDS011;8746;49.230;9.220;2022-12-07T09:30:06;10.87;;;8.27;;
17259;SDS011;8746;49.230;9.220;2022-12-07T09:32:32;13.03;;;8.87;;
17259;SDS011;8746;49.230;9.220;2022-12-07T09:34:57;11.63;;;8.43;;
17259;SDS011;8746;49.230;9.220;2022-12-07T09:37:23;10.50;;;7.90;;
17259;SDS011;8746;49.230;9.220;2022-12-07T09:39:48;11.30;;;8.20;;
17259;SDS011;8746;49.230;9.220;2022-12-07T09:42:27;10.20;;;7.73;;
17259;SDS011;8746;49.230;9.220;2022-12-07T09:44:57;11.80;;;7.90;;
17259;SDS011;8746;49.230;9.220;2022-12-07T09:47:23;11.63;;;8.47;;
17259;SDS011;8746;49.230;9.220;2022-12-07T09:49:49;10.63;;;8.70;;
17259;SDS011;8746;49.230;9.220;2022-12-07T09:52:25;10.07;;;8.00;;
17259;SDS011;8746;49.230;9.220;2022-12-07T09:54:52;11.13;;;8.50;;
17259;SDS011;8746;49.230;9.220;2022-12-07T09:57:19;11.43;;;8.90;;
17259;SDS011;8746;49.230;9.220;2022-12-07T09:59:57;12.43;;;8.63;;
17259;SDS011;8746;49.230;9.220;2022-12-07T10:02:32;17.00;;;10.27;;
17259;SDS011;8746;49.230;9.220;2022-12-07T10:05:03;11.93;;;9.07;;
17259;SDS011;8746;49.230;9.220;2022-12-07T10:07:34;18.10;;;11.87;;
17259;SDS011;8746;49.230;9.220;2022-12-07T10:10:01;12.33;;;8.70;;
17259;SDS011;8746;49.230;9.220;2022-12-07T10:12:28;11.33;;;8.30;;
17259;SDS011;8746;49.230;9.220;2022-12-07T10:15:01;11.17;;;8.00;;
17259;SDS011;8746;49.230;9.220;2022-12-07T10:17:39;22.10;;;14.00;;
17259;SDS011;8746;49.230;9.220;2022-12-07T10:22:56;12.47;;;8.87;;
17259;SDS011;8746;49.230;9.220;2022-12-07T10:25:24;13.40;;;9.00;;
17259;SDS011;8746;49.230;9.220;2022-12-07T10:28:27;16.17;;;8.70;;
17259;SDS011;8746;49.230;9.220;2022-12-07T10:30:54;12.70;;;8.77;;
17259;SDS011;8746;49.230;9.220;2022-12-07T10:33:30;11.93;;;8.53;;
17259;SDS011;8746;49.230;9.220;2022-12-07T10:35:56;10.83;;;8.10;;
17259;SDS011;8746;49.230;9.220;2022-12-07T10:38:22;14.50;;;8.77;;
17259;SDS011;8746;49.230;9.220;2022-12-07T10:41:02;12.37;;;8.43;;
17259;SDS011;8746;49.230;9.220;2022-12-07T10:43:29;10.73;;;8.83;;
17259;SDS011;8746;49.230;9.220;2022-12-07T10:52:09;10.43;;;8.20;;
17259;SDS011;8746;49.230;9.220;2022-12-07T10:54:40;12.13;;;9.90;;
17259;SDS011;8746;49.230;9.220;2022-12-07T10:57:22;11.60;;;8.20;;
17259;SDS011;8746;49.230;9.220;2022-12-07T11:00:21;10.87;;;8.77;;
17259;SDS011;8746;49.230;9.220;2022-12-07T11:02:58;12.43;;;7.80;;
17259;SDS011;8746;49.230;9.220;2022-12-07T11:05:53;10.10;;;7.43;;
17259;SDS011;8746;49.230;9.220;2022-12-07T11:11:05;9.70;;;7.63;;
17259;SDS011;8746;49.230;9.220;2022-12-07T11:13:44;13.07;;;8.00;;
17259;SDS011;8746;49.230;9.220;2022-12-07T11:28:18;16.63;;;8.60;;
17259;SDS011;8746;49.230;9.220;2022-12-07T11:31:29;9.93;;;8.20;;
17259;SDS011;8746;49.230;9.220;2022-12-07T11:34:16;10.20;;;7.77;;
17259;SDS011;8746;49.230;9.220;2022-12-07T11:37:13;9.03;;;7.40;;
17259;SDS011;8746;49.230;9.220;2022-12-07T11:39:44;10.97;;;7.73;;
17259;SDS011;8746;49.230;9.220;2022-12-07T11:42:29;9.23;;;7.47;;
17259;SDS011;8746;49.230;9.220;2022-12-07T11:45:14;11.53;;;7.93;;
17259;SDS011;8746;49.230;9.220;2022-12-07T11:50:36;11.03;;;7.90;;
17259;SDS011;8746;49.230;9.220;2022-12-07T12:00:51;11.60;;;8.57;;
17259;SDS011;8746;49.230;9.220;2022-12-07T12:03:28;13.37;;;8.77;;
17259;SDS011;8746;49.230;9.220;2022-12-07T12:05:59;10.50;;;8.50;;
17259;SDS011;8746;49.230;9.220;2022-12-07T12:08:29;9.97;;;8.00;;
17259;SDS011;8746;49.230;9.220;2022-12-07T12:18:51;11.43;;;8.50;;
17259;SDS011;8746;49.230;9.220;2022-12-07T12:21:27;12.23;;;8.33;;
17259;SDS011;8746;49.230;9.220;2022-12-07T12:24:01;11.27;;;8.30;;
17259;SDS011;8746;49.230;9.220;2022-12-07T12:26:35;11.00;;;8.07;;
17259;SDS011;8746;49.230;9.220;2022-12-07T12:29:03;9.87;;;7.87;;
17259;SDS011;8746;49.230;9.220;2022-12-07T12:31:40;11.23;;;8.30;;
17259;SDS011;8746;49.230;9.220;2022-12-07T12:36:58;11.53;;;7.73;;
17259;SDS011;8746;49.230;9.220;2022-12-07T12:39:24;12.97;;;8.77;;
17259;SDS011;8746;49.230;9.220;2022-12-07T12:41:51;9.90;;;8.20;;
17259;SDS011;8746;49.230;9.220;2022-12-07T12:51:43;10.83;;;8.10;;
17259;SDS011;8746;49.230;9.220;2022-12-07T13:05:14;13.47;;;8.00;;
17259;SDS011;8746;49.230;9.220;2022-12-07T13:10:21;11.27;;;8.50;;
17259;SDS011;8746;49.230;9.220;2022-12-07T13:15:35;12.03;;;7.37;;
17259;SDS011;8746;49.230;9.220;2022-12-07T13:20:40;10.53;;;7.30;;
17259;SDS011;8746;49.230;9.220;2022-12-07T13:23:10;8.70;;;7.27;;
17259;SDS011;8746;49.230;9.220;2022-12-07T13:25:46;9.27;;;7.30;;
17259;SDS011;8746;49.230;9.220;2022-12-07T13:28:18;10.17;;;7.57;;
17259;SDS011;8746;49.230;9.220;2022-12-07T13:30:48;10.20;;;8.00;;
17259;SDS011;8746;49.230;9.220;2022-12-07T13:33:23;11.30;;;7.93;;
17259;SDS011;8746;49.230;9.220;2022-12-07T13:35:53;11.33;;;7.60;;
17259;SDS011;8746;49.230;9.220;2022-12-07T13:38:23;10.80;;;7.37;;
17259;SDS011;8746;49.230;9.220;2022-12-07T13:41:00;11.37;;;8.27;;
17259;SDS011;8746;49.230;9.220;2022-12-07T13:43:29;11.33;;;8.40;;
17259;SDS011;8746;49.230;9.220;2022-12-07T13:45:56;11.50;;;8.50;;
17259;SDS011;8746;49.230;9.220;2022-12-07T13:48:36;10.00;;;7.93;;
17259;SDS011;8746;49.230;9.220;2022-12-07T13:51:14;10.60;;;8.07;;
17259;SDS011;8746;49.230;9.220;2022-12-07T13:53:46;9.90;;;8.17;;
17259;SDS011;8746;49.230;9.220;2022-12-07T13:56:13;11.97;;;8.27;;
17259;SDS011;8746;49.230;9.220;2022-12-07T13:58:39;11.57;;;8.60;;
17259;SDS011;8746;49.230;9.220;2022-12-07T14:01:05;10.97;;;8.23;;
17259;SDS011;8746;49.230;9.220;2022-12-07T14:03:32;10.43;;;7.70;;
17259;SDS011;8746;49.230;9.220;2022-12-07T14:11:55;10.87;;;8.03;;
17259;SDS011;8746;49.230;9.220;2022-12-07T14:14:23;11.13;;;8.17;;
17259;SDS011;8746;49.230;9.220;2022-12-07T14:16:56;12.90;;;8.90;;
17259;SDS011;8746;49.230;9.220;2022-12-07T14:19:47;11.70;;;8.50;;
17259;SDS011;8746;49.230;9.220;2022-12-07T14:22:53;15.00;;;8.87;;
17259;SDS011;8746;49.230;9.220;2022-12-07T14:25:19;13.07;;;8.93;;
17259;SDS011;8746;49.230;9.220;2022-12-07T14:28:01;12.03;;;8.77;;
17259;SDS011;8746;49.230;9.220;2022-12-07T14:30:28;11.37;;;8.57;;
17259;SDS011;8746;49.230;9.220;2022-12-07T14:32:57;12.20;;;9.10;;
17259;SDS011;8746;49.230;9.220;2022-12-07T14:35:30;15.33;;;9.23;;
17259;SDS011;8746;49.230;9.220;2022-12-07T14:37:56;12.10;;;8.17;;
17259;SDS011;8746;49.230;9.220;2022-12-07T14:40:22;13.27;;;8.50;;
17259;SDS011;8746;49.230;9.220;2022-12-07T14:42:55;12.70;;;8.80;;
17259;SDS011;8746;49.230;9.220;2022-12-07T14:45:24;13.63;;;8.60;;
17259;SDS011;8746;49.230;9.220;2022-12-07T14:47:50;11.97;;;9.20;;
17259;SDS011;8746;49.230;9.220;2022-12-07T14:50:17;11.77;;;8.53;;
17259;SDS011;8746;49.230;9.220;2022-12-07T14:52:45;12.07;;;8.70;;
17259;SDS011;8746;49.230;9.220;2022-12-07T14:55:22;11.70;;;8.57;;
17259;SDS011;8746;49.230;9.220;2022-12-07T14:57:50;14.00;;;8.93;;
17259;SDS011;8746;49.230;9.220;2022-12-07T15:00:16;12.17;;;8.87;;
17259;SDS011;8746;49.230;9.220;2022-12-07T15:02:46;11.70;;;8.40;;
17259;SDS011;8746;49.230;9.220;2022-12-07T15:05:12;12.37;;;8.87;;
17259;SDS011;8746;49.230;9.220;2022-12-07T15:07:38;14.80;;;9.67;;
17259;SDS011;8746;49.230;9.220;2022-12-07T15:10:04;12.63;;;9.13;;
17259;SDS011;8746;49.230;9.220;2022-12-07T15:12:31;13.90;;;9.53;;
17259;SDS011;8746;49.230;9.220;2022-12-07T15:14:56;14.27;;;9.07;;
17259;SDS011;8746;49.230;9.220;2022-12-07T15:17:21;14.57;;;10.13;;
17259;SDS011;8746;49.230;9.220;2022-12-07T15:19:47;13.23;;;9.57;;
17259;SDS011;8746;49.230;9.220;2022-12-07T15:22:12;11.97;;;9.27;;
17259;SDS011;8746;49.230;9.220;2022-12-07T15:24:37;16.80;;;9.50;;
17259;SDS011;8746;49.230;9.220;2022-12-07T15:27:03;13.70;;;9.40;;
17259;SDS011;8746;49.230;9.220;2022-12-07T15:29:29;13.20;;;9.47;;
17259;SDS011;8746;49.230;9.220;2022-12-07T15:31:54;13.37;;;9.70;;
17259;SDS011;8746;49.230;9.220;2022-12-07T15:34:19;14.60;;;9.10;;
17259;SDS011;8746;49.230;9.220;2022-12-07T15:36:45;13.00;;;9.10;;
17259;SDS011;8746;49.230;9.220;2022-12-07T15:39:10;12.53;;;9.00;;
17259;SDS011;8746;49.230;9.220;2022-12-07T15:41:36;12.80;;;9.57;;
17259;SDS011;8746;49.230;9.220;2022-12-07T15:44:01;13.17;;;9.30;;
17259;SDS011;8746;49.230;9.220;2022-12-07T15:46:45;15.57;;;9.43;;
17259;SDS011;8746;49.230;9.220;2022-12-07T15:49:12;13.53;;;9.57;;
17259;SDS011;8746;49.230;9.220;2022-12-07T15:51:40;13.23;;;9.27;;
17259;SDS011;8746;49.230;9.220;2022-12-07T15:54:06;11.30;;;8.73;;
17259;SDS011;8746;49.230;9.220;2022-12-07T15:56:32;14.97;;;9.87;;
17259;SDS011;8746;49.230;9.220;2022-12-07T15:58:58;13.57;;;9.40;;
17259;SDS011;8746;49.230;9.220;2022-12-07T16:01:23;11.83;;;8.50;;
17259;SDS011;8746;49.230;9.220;2022-12-07T16:03:48;11.10;;;8.50;;
17259;SDS011;8746;49.230;9.220;2022-12-07T16:06:17;11.63;;;8.20;;
17259;SDS011;8746;49.230;9.220;2022-12-07T16:08:44;16.33;;;9.37;;
17259;SDS011;8746;49.230;9.220;2022-12-07T16:11:11;14.83;;;9.80;;
17259;SDS011;8746;49.230;9.220;2022-12-07T16:13:37;12.07;;;9.00;;
17259;SDS011;8746;49.230;9.220;2022-12-07T16:16:07;12.80;;;9.30;;
17259;SDS011;8746;49.230;9.220;2022-12-07T16:18:37;11.87;;;8.63;;
17259;SDS011;8746;49.230;9.220;2022-12-07T16:21:03;15.23;;;9.60;;
17259;SDS011;8746;49.230;9.220;2022-12-07T16:23:29;13.80;;;9.13;;
17259;SDS011;8746;49.230;9.220;2022-12-07T16:25:54;14.93;;;10.30;;
17259;SDS011;8746;49.230;9.220;2022-12-07T16:28:20;12.40;;;9.63;;
17259;SDS011;8746;49.230;9.220;2022-12-07T16:30:45;13.50;;;9.73;;
17259;SDS011;8746;49.230;9.220;2022-12-07T16:33:11;12.77;;;9.90;;
17259;SDS011;8746;49.230;9.220;2022-12-07T16:35:39;12.80;;;10.13;;
17259;SDS011;8746;49.230;9.220;2022-12-07T16:38:08;13.50;;;9.93;;
17259;SDS011;8746;49.230;9.220;2022-12-07T16:40:34;13.87;;;9.93;;